sensor_id;sensor_type;location;lat;lon;timestamp;temperature;humidity
18139;DHT22;9195;53.176;9.486;2022-10-31T00:00:44;13.30;99.90
18139;DHT22;9195;53.176;9.486;2022-10-31T00:03:10;13.30;99.90
18139;DHT22;9195;53.176;9.486;2022-10-31T00:05:35;13.30;99.90
18139;DHT22;9195;53.176;9.486;2022-10-31T00:08:01;13.30;99.90
18139;DHT22;9195;53.176;9.486;2022-10-31T00:10:27;13.30;99.90
18139;DHT22;9195;53.176;9.486;2022-10-31T00:12:52;13.30;99.90
18139;DHT22;9195;53.176;9.486;2022-10-31T00:15:18;13.40;99.90
18139;DHT22;9195;53.176;9.486;2022-10-31T00:17:43;13.30;99.90
18139;DHT22;9195;53.176;9.486;2022-10-31T00:20:09;13.30;99.90
18139;DHT22;9195;53.176;9.486;2022-10-31T00:22:35;13.30;99.90
18139;DHT22;9195;53.176;9.486;2022-10-31T00:25:00;13.20;99.90
18139;DHT22;9195;53.176;9.486;2022-10-31T00:27:26;13.30;99.90
18139;DHT22;9195;53.176;9.486;2022-10-31T00:29:51;13.20;99.90
18139;DHT22;9195;53.176;9.486;2022-10-31T00:32:17;13.20;99.90
18139;DHT22;9195;53.176;9.486;2022-10-31T00:34:43;13.30;99.90
18139;DHT22;9195;53.176;9.486;2022-10-31T00:37:08;13.30;99.90
18139;DHT22;9195;53.176;9.486;2022-10-31T00:39:34;13.30;99.90
18139;DHT22;9195;53.176;9.486;2022-10-31T00:41:59;13.30;99.90
18139;DHT22;9195;53.176;9.486;2022-10-31T00:44:25;13.40;99.90
18139;DHT22;9195;53.176;9.486;2022-10-31T00:46:50;13.40;99.90
18139;DHT22;9195;53.176;9.486;2022-10-31T00:49:16;13.40;99.90
18139;DHT22;9195;53.176;9.486;2022-10-31T00:51:42;13.40;99.90
18139;DHT22;9195;53.176;9.486;2022-10-31T00:54:07;13.50;99.90
18139;DHT22;9195;53.176;9.486;2022-10-31T00:56:33;13.50;99.90
18139;DHT22;9195;53.176;9.486;2022-10-31T00:58:59;13.50;99.90
18139;DHT22;9195;53.176;9.486;2022-10-31T01:01:24;13.50;99.90
18139;DHT22;9195;53.176;9.486;2022-10-31T01:03:50;13.50;99.90
18139;DHT22;9195;53.176;9.486;2022-10-31T01:06:16;13.50;99.90
18139;DHT22;9195;53.176;9.486;2022-10-31T01:08:42;13.50;99.90
18139;DHT22;9195;53.176;9.486;2022-10-31T01:11:17;13.50;99.90
18139;DHT22;9195;53.176;9.486;2022-10-31T01:13:43;13.50;99.90
18139;DHT22;9195;53.176;9.486;2022-10-31T01:16:14;13.50;99.90
18139;DHT22;9195;53.176;9.486;2022-10-31T01:18:41;13.50;99.90
18139;DHT22;9195;53.176;9.486;2022-10-31T01:21:12;13.50;99.90
18139;DHT22;9195;53.176;9.486;2022-10-31T01:23:38;13.40;99.90
18139;DHT22;9195;53.176;9.486;2022-10-31T01:26:15;13.40;99.90
18139;DHT22;9195;53.176;9.486;2022-10-31T01:28:49;13.40;99.90
18139;DHT22;9195;53.176;9.486;2022-10-31T01:31:17;13.40;99.90
18139;DHT22;9195;53.176;9.486;2022-10-31T01:33:43;13.40;99.90
18139;DHT22;9195;53.176;9.486;2022-10-31T01:38:44;13.30;99.90
18139;DHT22;9195;53.176;9.486;2022-10-31T01:41:12;13.30;99.90
18139;DHT22;9195;53.176;9.486;2022-10-31T01:46:11;13.30;99.90
18139;DHT22;9195;53.176;9.486;2022-10-31T01:48:37;13.30;99.90
18139;DHT22;9195;53.176;9.486;2022-10-31T01:51:05;13.30;99.90
18139;DHT22;9195;53.176;9.486;2022-10-31T01:53:32;13.20;99.90
18139;DHT22;9195;53.176;9.486;2022-10-31T01:55:59;13.20;99.90
18139;DHT22;9195;53.176;9.486;2022-10-31T01:58:28;13.20;99.90
18139;DHT22;9195;53.176;9.486;2022-10-31T02:00:59;13.20;99.90
18139;DHT22;9195;53.176;9.486;2022-10-31T02:03:26;13.20;99.90
18139;DHT22;9195;53.176;9.486;2022-10-31T02:05:54;13.20;99.90
18139;DHT22;9195;53.176;9.486;2022-10-31T02:08:25;13.10;99.90
18139;DHT22;9195;53.176;9.486;2022-10-31T02:10:52;13.10;99.90
18139;DHT22;9195;53.176;9.486;2022-10-31T02:13:18;13.10;99.90
18139;DHT22;9195;53.176;9.486;2022-10-31T02:15:47;13.10;99.90
18139;DHT22;9195;53.176;9.486;2022-10-31T02:18:13;13.10;99.90
18139;DHT22;9195;53.176;9.486;2022-10-31T02:23:45;13.10;99.90
18139;DHT22;9195;53.176;9.486;2022-10-31T02:45:06;12.90;99.90
18139;DHT22;9195;53.176;9.486;2022-10-31T02:47:36;13.00;99.90
18139;DHT22;9195;53.176;9.486;2022-10-31T02:50:25;13.00;99.90
18139;DHT22;9195;53.176;9.486;2022-10-31T02:52:53;13.00;99.90
18139;DHT22;9195;53.176;9.486;2022-10-31T02:57:56;13.00;99.90
18139;DHT22;9195;53.176;9.486;2022-10-31T03:00:22;13.00;99.90
18139;DHT22;9195;53.176;9.486;2022-10-31T03:03:02;13.00;99.90
18139;DHT22;9195;53.176;9.486;2022-10-31T03:08:20;13.00;99.90
18139;DHT22;9195;53.176;9.486;2022-10-31T03:10:51;13.00;99.90
18139;DHT22;9195;53.176;9.486;2022-10-31T03:13:49;13.00;99.90
18139;DHT22;9195;53.176;9.486;2022-10-31T03:16:45;13.00;99.90
18139;DHT22;9195;53.176;9.486;2022-10-31T03:19:16;13.00;99.90
18139;DHT22;9195;53.176;9.486;2022-10-31T03:22:00;13.00;99.90
18139;DHT22;9195;53.176;9.486;2022-10-31T03:24:30;13.00;99.90
18139;DHT22;9195;53.176;9.486;2022-10-31T03:26:59;13.00;99.90
18139;DHT22;9195;53.176;9.486;2022-10-31T03:29:29;13.00;99.90
18139;DHT22;9195;53.176;9.486;2022-10-31T03:32:00;13.00;99.90
18139;DHT22;9195;53.176;9.486;2022-10-31T03:34:28;13.10;99.90
18139;DHT22;9195;53.176;9.486;2022-10-31T03:36:57;13.10;99.90
18139;DHT22;9195;53.176;9.486;2022-10-31T03:39:23;13.10;99.90
18139;DHT22;9195;53.176;9.486;2022-10-31T03:42:17;13.20;99.90
18139;DHT22;9195;53.176;9.486;2022-10-31T03:44:51;13.20;99.90
18139;DHT22;9195;53.176;9.486;2022-10-31T03:47:18;13.20;99.90
18139;DHT22;9195;53.176;9.486;2022-10-31T03:49:44;13.20;99.90
18139;DHT22;9195;53.176;9.486;2022-10-31T03:55:12;13.20;99.90
18139;DHT22;9195;53.176;9.486;2022-10-31T04:00:21;13.20;99.90
18139;DHT22;9195;53.176;9.486;2022-10-31T04:03:10;13.20;99.90
18139;DHT22;9195;53.176;9.486;2022-10-31T04:05:37;13.20;99.90
18139;DHT22;9195;53.176;9.486;2022-10-31T04:08:07;13.20;99.90
18139;DHT22;9195;53.176;9.486;2022-10-31T04:10:35;13.20;99.90
18139;DHT22;9195;53.176;9.486;2022-10-31T04:13:08;13.20;99.90
18139;DHT22;9195;53.176;9.486;2022-10-31T04:15:35;13.20;99.90
18139;DHT22;9195;53.176;9.486;2022-10-31T04:18:04;13.10;99.90
18139;DHT22;9195;53.176;9.486;2022-10-31T04:20:35;13.10;99.90
18139;DHT22;9195;53.176;9.486;2022-10-31T04:23:02;13.10;99.90
18139;DHT22;9195;53.176;9.486;2022-10-31T04:25:28;13.10;99.90
18139;DHT22;9195;53.176;9.486;2022-10-31T04:27:54;13.00;99.90
18139;DHT22;9195;53.176;9.486;2022-10-31T04:30:19;13.00;99.90
18139;DHT22;9195;53.176;9.486;2022-10-31T04:32:45;13.00;99.90
18139;DHT22;9195;53.176;9.486;2022-10-31T04:35:10;13.10;99.90
18139;DHT22;9195;53.176;9.486;2022-10-31T04:37:36;13.10;99.90
18139;DHT22;9195;53.176;9.486;2022-10-31T04:40:02;13.00;99.90
18139;DHT22;9195;53.176;9.486;2022-10-31T04:42:31;13.00;99.90
18139;DHT22;9195;53.176;9.486;2022-10-31T04:44:57;13.00;99.90
18139;DHT22;9195;53.176;9.486;2022-10-31T04:47:22;13.00;99.90
18139;DHT22;9195;53.176;9.486;2022-10-31T04:49:48;13.00;99.90
18139;DHT22;9195;53.176;9.486;2022-10-31T04:52:13;13.00;99.90
18139;DHT22;9195;53.176;9.486;2022-10-31T04:54:39;13.10;99.90
18139;DHT22;9195;53.176;9.486;2022-10-31T04:57:06;13.10;99.90
18139;DHT22;9195;53.176;9.486;2022-10-31T04:59:32;13.10;99.90
18139;DHT22;9195;53.176;9.486;2022-10-31T05:01:57;13.10;99.90
18139;DHT22;9195;53.176;9.486;2022-10-31T05:04:23;13.10;99.90
18139;DHT22;9195;53.176;9.486;2022-10-31T05:06:48;13.10;99.90
18139;DHT22;9195;53.176;9.486;2022-10-31T05:09:14;13.10;99.90
18139;DHT22;9195;53.176;9.486;2022-10-31T05:11:40;13.10;99.90
18139;DHT22;9195;53.176;9.486;2022-10-31T05:14:05;13.10;99.90
18139;DHT22;9195;53.176;9.486;2022-10-31T05:16:31;13.10;99.90
18139;DHT22;9195;53.176;9.486;2022-10-31T05:18:56;13.10;99.90
18139;DHT22;9195;53.176;9.486;2022-10-31T05:21:22;13.10;99.90
18139;DHT22;9195;53.176;9.486;2022-10-31T05:23:48;13.00;99.90
18139;DHT22;9195;53.176;9.486;2022-10-31T05:26:13;13.00;99.90
18139;DHT22;9195;53.176;9.486;2022-10-31T05:28:39;13.10;99.90
18139;DHT22;9195;53.176;9.486;2022-10-31T05:31:04;13.10;99.90
18139;DHT22;9195;53.176;9.486;2022-10-31T05:33:30;13.10;99.90
18139;DHT22;9195;53.176;9.486;2022-10-31T05:35:56;13.10;99.90
18139;DHT22;9195;53.176;9.486;2022-10-31T05:38:21;13.00;99.90
18139;DHT22;9195;53.176;9.486;2022-10-31T05:40:47;13.00;99.90
18139;DHT22;9195;53.176;9.486;2022-10-31T05:43:12;13.00;99.90
18139;DHT22;9195;53.176;9.486;2022-10-31T05:45:38;12.90;99.90
18139;DHT22;9195;53.176;9.486;2022-10-31T05:48:04;12.90;99.90
18139;DHT22;9195;53.176;9.486;2022-10-31T05:50:31;12.90;99.90
18139;DHT22;9195;53.176;9.486;2022-10-31T05:53:04;12.90;99.90
18139;DHT22;9195;53.176;9.486;2022-10-31T05:55:30;12.90;99.90
18139;DHT22;9195;53.176;9.486;2022-10-31T05:57:56;12.90;99.90
18139;DHT22;9195;53.176;9.486;2022-10-31T06:00:23;12.90;99.90
18139;DHT22;9195;53.176;9.486;2022-10-31T06:02:49;12.80;99.90
18139;DHT22;9195;53.176;9.486;2022-10-31T06:05:15;12.90;99.90
18139;DHT22;9195;53.176;9.486;2022-10-31T06:07:41;12.80;99.90
18139;DHT22;9195;53.176;9.486;2022-10-31T06:10:08;12.80;99.90
18139;DHT22;9195;53.176;9.486;2022-10-31T06:12:35;12.80;99.90
18139;DHT22;9195;53.176;9.486;2022-10-31T06:15:06;12.80;99.90
18139;DHT22;9195;53.176;9.486;2022-10-31T06:17:36;12.80;99.90
18139;DHT22;9195;53.176;9.486;2022-10-31T06:20:02;12.80;99.90
18139;DHT22;9195;53.176;9.486;2022-10-31T06:22:28;12.80;99.90
18139;DHT22;9195;53.176;9.486;2022-10-31T06:24:54;12.80;99.90
18139;DHT22;9195;53.176;9.486;2022-10-31T06:27:19;12.80;99.90
18139;DHT22;9195;53.176;9.486;2022-10-31T06:29:45;12.80;99.90
18139;DHT22;9195;53.176;9.486;2022-10-31T06:32:12;12.80;99.90
18139;DHT22;9195;53.176;9.486;2022-10-31T06:34:38;12.80;99.90
18139;DHT22;9195;53.176;9.486;2022-10-31T06:37:06;12.90;99.90
18139;DHT22;9195;53.176;9.486;2022-10-31T06:39:32;12.90;99.90
18139;DHT22;9195;53.176;9.486;2022-10-31T06:41:58;12.90;99.90
18139;DHT22;9195;53.176;9.486;2022-10-31T06:44:23;12.90;99.90
18139;DHT22;9195;53.176;9.486;2022-10-31T06:46:49;13.00;99.90
18139;DHT22;9195;53.176;9.486;2022-10-31T06:49:14;13.00;99.90
18139;DHT22;9195;53.176;9.486;2022-10-31T06:51:40;13.00;99.90
18139;DHT22;9195;53.176;9.486;2022-10-31T06:54:06;13.00;99.90
18139;DHT22;9195;53.176;9.486;2022-10-31T06:56:31;13.10;99.90
18139;DHT22;9195;53.176;9.486;2022-10-31T06:58:57;13.10;99.90
18139;DHT22;9195;53.176;9.486;2022-10-31T07:01:22;13.10;99.90
18139;DHT22;9195;53.176;9.486;2022-10-31T07:03:48;13.10;99.90
18139;DHT22;9195;53.176;9.486;2022-10-31T07:06:14;13.20;99.90
18139;DHT22;9195;53.176;9.486;2022-10-31T07:08:39;13.20;99.90
18139;DHT22;9195;53.176;9.486;2022-10-31T07:11:05;13.30;99.90
18139;DHT22;9195;53.176;9.486;2022-10-31T07:13:31;13.20;99.90
18139;DHT22;9195;53.176;9.486;2022-10-31T07:16:01;13.30;99.90
18139;DHT22;9195;53.176;9.486;2022-10-31T07:18:27;13.40;99.90
18139;DHT22;9195;53.176;9.486;2022-10-31T07:20:54;13.40;99.90
18139;DHT22;9195;53.176;9.486;2022-10-31T07:23:20;13.50;99.90
18139;DHT22;9195;53.176;9.486;2022-10-31T07:25:46;13.50;99.90
18139;DHT22;9195;53.176;9.486;2022-10-31T07:28:12;13.60;99.90
18139;DHT22;9195;53.176;9.486;2022-10-31T07:30:38;13.60;99.90
18139;DHT22;9195;53.176;9.486;2022-10-31T07:33:04;13.70;99.90
18139;DHT22;9195;53.176;9.486;2022-10-31T07:35:30;13.70;99.90
18139;DHT22;9195;53.176;9.486;2022-10-31T07:37:56;13.70;99.90
18139;DHT22;9195;53.176;9.486;2022-10-31T07:40:23;13.70;99.90
18139;DHT22;9195;53.176;9.486;2022-10-31T07:42:51;13.70;99.90
18139;DHT22;9195;53.176;9.486;2022-10-31T07:45:19;13.70;99.90
18139;DHT22;9195;53.176;9.486;2022-10-31T07:47:46;13.80;99.90
18139;DHT22;9195;53.176;9.486;2022-10-31T07:50:17;13.70;99.90
18139;DHT22;9195;53.176;9.486;2022-10-31T07:52:43;13.70;99.90
18139;DHT22;9195;53.176;9.486;2022-10-31T07:55:09;13.70;99.90
18139;DHT22;9195;53.176;9.486;2022-10-31T07:57:35;13.80;99.90
18139;DHT22;9195;53.176;9.486;2022-10-31T08:00:06;13.80;99.90
18139;DHT22;9195;53.176;9.486;2022-10-31T08:02:32;13.80;99.90
18139;DHT22;9195;53.176;9.486;2022-10-31T08:04:57;13.90;99.90
18139;DHT22;9195;53.176;9.486;2022-10-31T08:07:25;13.90;99.90
18139;DHT22;9195;53.176;9.486;2022-10-31T08:09:51;13.90;99.90
18139;DHT22;9195;53.176;9.486;2022-10-31T08:12:17;14.00;99.90
18139;DHT22;9195;53.176;9.486;2022-10-31T08:14:43;14.00;99.90
18139;DHT22;9195;53.176;9.486;2022-10-31T08:17:09;14.00;99.90
18139;DHT22;9195;53.176;9.486;2022-10-31T08:19:35;14.00;99.90
18139;DHT22;9195;53.176;9.486;2022-10-31T08:22:01;14.00;99.90
18139;DHT22;9195;53.176;9.486;2022-10-31T08:24:26;14.00;99.90
18139;DHT22;9195;53.176;9.486;2022-10-31T08:26:52;14.10;99.90
18139;DHT22;9195;53.176;9.486;2022-10-31T08:29:17;14.20;99.90
18139;DHT22;9195;53.176;9.486;2022-10-31T08:31:43;14.20;99.90
18139;DHT22;9195;53.176;9.486;2022-10-31T08:34:09;14.30;99.90
18139;DHT22;9195;53.176;9.486;2022-10-31T08:36:34;14.30;99.90
18139;DHT22;9195;53.176;9.486;2022-10-31T08:39:00;14.30;99.90
18139;DHT22;9195;53.176;9.486;2022-10-31T08:41:26;14.30;99.90
18139;DHT22;9195;53.176;9.486;2022-10-31T08:43:52;14.40;99.90
18139;DHT22;9195;53.176;9.486;2022-10-31T08:46:18;14.40;99.90
18139;DHT22;9195;53.176;9.486;2022-10-31T08:48:44;14.40;99.90
18139;DHT22;9195;53.176;9.486;2022-10-31T08:51:10;14.60;99.90
18139;DHT22;9195;53.176;9.486;2022-10-31T08:53:36;14.70;99.90
18139;DHT22;9195;53.176;9.486;2022-10-31T08:56:02;14.70;99.90
18139;DHT22;9195;53.176;9.486;2022-10-31T08:58:28;14.70;99.90
18139;DHT22;9195;53.176;9.486;2022-10-31T09:00:54;14.70;99.90
18139;DHT22;9195;53.176;9.486;2022-10-31T09:03:25;14.70;99.90
18139;DHT22;9195;53.176;9.486;2022-10-31T09:05:55;14.70;99.90
18139;DHT22;9195;53.176;9.486;2022-10-31T09:08:21;14.70;99.90
18139;DHT22;9195;53.176;9.486;2022-10-31T09:10:47;14.70;99.90
18139;DHT22;9195;53.176;9.486;2022-10-31T09:13:16;14.60;99.90
18139;DHT22;9195;53.176;9.486;2022-10-31T09:15:43;14.60;99.90
18139;DHT22;9195;53.176;9.486;2022-10-31T09:18:11;14.60;99.90
18139;DHT22;9195;53.176;9.486;2022-10-31T09:20:38;14.60;99.90
18139;DHT22;9195;53.176;9.486;2022-10-31T09:23:06;14.60;99.90
18139;DHT22;9195;53.176;9.486;2022-10-31T09:25:33;14.60;99.90
18139;DHT22;9195;53.176;9.486;2022-10-31T09:28:01;14.60;99.90
18139;DHT22;9195;53.176;9.486;2022-10-31T09:30:29;14.70;99.90
18139;DHT22;9195;53.176;9.486;2022-10-31T09:33:00;14.70;99.90
18139;DHT22;9195;53.176;9.486;2022-10-31T09:35:26;14.70;99.90
18139;DHT22;9195;53.176;9.486;2022-10-31T09:38:06;14.70;99.90
18139;DHT22;9195;53.176;9.486;2022-10-31T09:40:55;14.80;99.90
18139;DHT22;9195;53.176;9.486;2022-10-31T09:43:41;14.90;99.90
18139;DHT22;9195;53.176;9.486;2022-10-31T09:51:42;14.90;99.90
18139;DHT22;9195;53.176;9.486;2022-10-31T09:54:19;14.90;99.90
18139;DHT22;9195;53.176;9.486;2022-10-31T09:56:47;15.00;99.90
18139;DHT22;9195;53.176;9.486;2022-10-31T09:59:30;15.10;99.90
18139;DHT22;9195;53.176;9.486;2022-10-31T10:02:13;15.20;99.90
18139;DHT22;9195;53.176;9.486;2022-10-31T10:04:59;15.30;99.90
18139;DHT22;9195;53.176;9.486;2022-10-31T10:07:40;15.40;99.90
18139;DHT22;9195;53.176;9.486;2022-10-31T10:11:13;15.40;99.90
18139;DHT22;9195;53.176;9.486;2022-10-31T10:25:07;15.60;99.90
18139;DHT22;9195;53.176;9.486;2022-10-31T10:30:33;15.60;99.90
18139;DHT22;9195;53.176;9.486;2022-10-31T10:33:03;15.60;99.90
18139;DHT22;9195;53.176;9.486;2022-10-31T10:40:37;15.90;99.90
18139;DHT22;9195;53.176;9.486;2022-10-31T10:43:23;16.00;99.90
18139;DHT22;9195;53.176;9.486;2022-10-31T10:49:18;16.20;99.90
18139;DHT22;9195;53.176;9.486;2022-10-31T10:51:47;16.20;99.90
18139;DHT22;9195;53.176;9.486;2022-10-31T10:54:26;16.20;99.90
18139;DHT22;9195;53.176;9.486;2022-10-31T10:59:45;16.30;99.90
18139;DHT22;9195;53.176;9.486;2022-10-31T11:02:37;16.60;99.90
18139;DHT22;9195;53.176;9.486;2022-10-31T11:05:03;16.80;99.90
18139;DHT22;9195;53.176;9.486;2022-10-31T11:07:38;16.70;99.90
18139;DHT22;9195;53.176;9.486;2022-10-31T11:10:06;16.60;99.90
18139;DHT22;9195;53.176;9.486;2022-10-31T11:12:39;16.70;99.90
18139;DHT22;9195;53.176;9.486;2022-10-31T11:15:24;16.80;99.90
18139;DHT22;9195;53.176;9.486;2022-10-31T11:17:52;16.90;99.90
18139;DHT22;9195;53.176;9.486;2022-10-31T11:22:47;17.10;99.90
18139;DHT22;9195;53.176;9.486;2022-10-31T11:25:23;17.30;99.90
18139;DHT22;9195;53.176;9.486;2022-10-31T11:28:07;17.30;99.90
18139;DHT22;9195;53.176;9.486;2022-10-31T11:30:48;17.30;99.90
18139;DHT22;9195;53.176;9.486;2022-10-31T11:35:50;17.10;99.90
18139;DHT22;9195;53.176;9.486;2022-10-31T11:38:20;17.30;99.90
18139;DHT22;9195;53.176;9.486;2022-10-31T11:40:57;17.50;99.90
18139;DHT22;9195;53.176;9.486;2022-10-31T11:43:24;17.80;99.90
18139;DHT22;9195;53.176;9.486;2022-10-31T11:45:51;18.60;99.90
18139;DHT22;9195;53.176;9.486;2022-10-31T11:48:19;18.90;99.90
18139;DHT22;9195;53.176;9.486;2022-10-31T11:50:55;18.90;99.90
18139;DHT22;9195;53.176;9.486;2022-10-31T11:53:26;18.80;99.90
18139;DHT22;9195;53.176;9.486;2022-10-31T11:58:27;18.40;99.90
18139;DHT22;9195;53.176;9.486;2022-10-31T12:00:55;18.30;99.90
18139;DHT22;9195;53.176;9.486;2022-10-31T12:03:42;18.30;99.90
18139;DHT22;9195;53.176;9.486;2022-10-31T12:06:20;18.30;99.90
18139;DHT22;9195;53.176;9.486;2022-10-31T12:08:46;18.30;99.90
18139;DHT22;9195;53.176;9.486;2022-10-31T12:20:02;18.60;99.90
18139;DHT22;9195;53.176;9.486;2022-10-31T12:30:21;18.70;99.90
18139;DHT22;9195;53.176;9.486;2022-10-31T12:33:17;18.80;99.90
18139;DHT22;9195;53.176;9.486;2022-10-31T12:38:40;20.20;99.90
18139;DHT22;9195;53.176;9.486;2022-10-31T12:58:01;20.90;99.90
18139;DHT22;9195;53.176;9.486;2022-10-31T13:00:28;21.40;99.90
18139;DHT22;9195;53.176;9.486;2022-10-31T13:02:59;21.90;99.90
18139;DHT22;9195;53.176;9.486;2022-10-31T13:05:37;22.30;99.90
18139;DHT22;9195;53.176;9.486;2022-10-31T13:08:15;22.40;99.90
18139;DHT22;9195;53.176;9.486;2022-10-31T13:16:36;21.60;99.90
18139;DHT22;9195;53.176;9.486;2022-10-31T13:19:19;21.30;99.90
18139;DHT22;9195;53.176;9.486;2022-10-31T13:22:09;21.30;99.90
18139;DHT22;9195;53.176;9.486;2022-10-31T13:24:57;21.10;99.90
18139;DHT22;9195;53.176;9.486;2022-10-31T13:28:15;21.00;99.90
18139;DHT22;9195;53.176;9.486;2022-10-31T13:30:21;20.90;99.90
18139;DHT22;9195;53.176;9.486;2022-10-31T13:35:46;20.80;99.90
18139;DHT22;9195;53.176;9.486;2022-10-31T13:44:21;21.10;99.90
18139;DHT22;9195;53.176;9.486;2022-10-31T13:46:50;21.40;99.90
18139;DHT22;9195;53.176;9.486;2022-10-31T13:51:50;22.30;99.90
18139;DHT22;9195;53.176;9.486;2022-10-31T13:54:39;22.10;99.90
18139;DHT22;9195;53.176;9.486;2022-10-31T13:57:37;22.00;99.90
18139;DHT22;9195;53.176;9.486;2022-10-31T14:00:07;21.90;99.90
18139;DHT22;9195;53.176;9.486;2022-10-31T14:02:55;21.70;99.90
18139;DHT22;9195;53.176;9.486;2022-10-31T14:05:25;21.60;99.90
18139;DHT22;9195;53.176;9.486;2022-10-31T14:07:53;21.40;99.90
18139;DHT22;9195;53.176;9.486;2022-10-31T14:13:08;20.70;99.90
18139;DHT22;9195;53.176;9.486;2022-10-31T14:15:42;20.30;99.90
18139;DHT22;9195;53.176;9.486;2022-10-31T14:18:29;19.90;99.90
18139;DHT22;9195;53.176;9.486;2022-10-31T14:20:55;19.60;99.90
18139;DHT22;9195;53.176;9.486;2022-10-31T14:28:47;19.00;99.90
18139;DHT22;9195;53.176;9.486;2022-10-31T14:31:39;19.00;99.90
18139;DHT22;9195;53.176;9.486;2022-10-31T14:50:49;18.50;99.90
18139;DHT22;9195;53.176;9.486;2022-10-31T14:53:33;18.30;99.90
18139;DHT22;9195;53.176;9.486;2022-10-31T14:56:00;18.00;99.90
18139;DHT22;9195;53.176;9.486;2022-10-31T14:58:39;17.70;99.90
18139;DHT22;9195;53.176;9.486;2022-10-31T15:01:06;17.50;99.90
18139;DHT22;9195;53.176;9.486;2022-10-31T15:03:50;17.40;99.90
18139;DHT22;9195;53.176;9.486;2022-10-31T15:06:19;17.20;99.90
18139;DHT22;9195;53.176;9.486;2022-10-31T15:08:51;17.10;99.90
18139;DHT22;9195;53.176;9.486;2022-10-31T15:11:21;16.80;99.90
18139;DHT22;9195;53.176;9.486;2022-10-31T15:13:49;16.60;99.90
18139;DHT22;9195;53.176;9.486;2022-10-31T15:16:22;16.40;99.90
18139;DHT22;9195;53.176;9.486;2022-10-31T15:19:00;16.30;99.90
18139;DHT22;9195;53.176;9.486;2022-10-31T15:21:28;16.00;99.90
18139;DHT22;9195;53.176;9.486;2022-10-31T15:23:56;15.90;99.90
18139;DHT22;9195;53.176;9.486;2022-10-31T15:26:26;15.80;99.90
18139;DHT22;9195;53.176;9.486;2022-10-31T15:28:58;15.70;99.90
18139;DHT22;9195;53.176;9.486;2022-10-31T15:31:25;15.60;99.90
18139;DHT22;9195;53.176;9.486;2022-10-31T15:33:51;15.50;99.90
18139;DHT22;9195;53.176;9.486;2022-10-31T15:36:26;15.40;99.90
18139;DHT22;9195;53.176;9.486;2022-10-31T15:38:52;15.40;99.90
18139;DHT22;9195;53.176;9.486;2022-10-31T15:41:24;15.30;99.90
18139;DHT22;9195;53.176;9.486;2022-10-31T15:43:54;15.30;99.90
18139;DHT22;9195;53.176;9.486;2022-10-31T15:46:20;15.20;99.90
18139;DHT22;9195;53.176;9.486;2022-10-31T15:48:47;15.20;99.90
18139;DHT22;9195;53.176;9.486;2022-10-31T15:51:13;15.10;99.90
18139;DHT22;9195;53.176;9.486;2022-10-31T15:53:58;15.10;99.90
18139;DHT22;9195;53.176;9.486;2022-10-31T15:56:28;15.10;99.90
18139;DHT22;9195;53.176;9.486;2022-10-31T15:58:56;15.10;99.90
18139;DHT22;9195;53.176;9.486;2022-10-31T16:01:27;15.00;99.90
18139;DHT22;9195;53.176;9.486;2022-10-31T16:06:30;14.90;99.90
18139;DHT22;9195;53.176;9.486;2022-10-31T16:08:56;14.90;99.90
18139;DHT22;9195;53.176;9.486;2022-10-31T16:11:28;14.90;99.90
18139;DHT22;9195;53.176;9.486;2022-10-31T16:14:20;14.90;99.90
18139;DHT22;9195;53.176;9.486;2022-10-31T16:16:53;14.90;99.90
18139;DHT22;9195;53.176;9.486;2022-10-31T16:19:31;14.80;99.90
18139;DHT22;9195;53.176;9.486;2022-10-31T16:22:13;14.80;99.90
18139;DHT22;9195;53.176;9.486;2022-10-31T16:25:10;14.80;99.90
18139;DHT22;9195;53.176;9.486;2022-10-31T16:27:37;14.80;99.90
18139;DHT22;9195;53.176;9.486;2022-10-31T16:30:40;14.80;99.90
18139;DHT22;9195;53.176;9.486;2022-10-31T16:33:22;14.80;99.90
18139;DHT22;9195;53.176;9.486;2022-10-31T16:35:48;14.80;99.90
18139;DHT22;9195;53.176;9.486;2022-10-31T16:38:14;14.80;99.90
18139;DHT22;9195;53.176;9.486;2022-10-31T16:40:39;14.80;99.90
18139;DHT22;9195;53.176;9.486;2022-10-31T16:43:11;14.80;99.90
18139;DHT22;9195;53.176;9.486;2022-10-31T16:45:43;14.80;99.90
18139;DHT22;9195;53.176;9.486;2022-10-31T16:48:14;14.70;99.90
18139;DHT22;9195;53.176;9.486;2022-10-31T16:50:41;14.70;99.90
18139;DHT22;9195;53.176;9.486;2022-10-31T16:53:08;14.70;99.90
18139;DHT22;9195;53.176;9.486;2022-10-31T16:55:41;14.70;99.90
18139;DHT22;9195;53.176;9.486;2022-10-31T16:58:11;14.60;99.90
18139;DHT22;9195;53.176;9.486;2022-10-31T17:00:38;14.60;99.90
18139;DHT22;9195;53.176;9.486;2022-10-31T17:03:04;14.60;99.90
18139;DHT22;9195;53.176;9.486;2022-10-31T17:05:30;14.60;99.90
18139;DHT22;9195;53.176;9.486;2022-10-31T17:07:57;14.50;99.90
18139;DHT22;9195;53.176;9.486;2022-10-31T17:10:24;14.50;99.90
18139;DHT22;9195;53.176;9.486;2022-10-31T17:12:50;14.50;99.90
18139;DHT22;9195;53.176;9.486;2022-10-31T17:15:24;14.50;99.90
18139;DHT22;9195;53.176;9.486;2022-10-31T17:17:50;14.40;99.90
18139;DHT22;9195;53.176;9.486;2022-10-31T17:22:49;14.40;99.90
18139;DHT22;9195;53.176;9.486;2022-10-31T17:25:21;14.40;99.90
18139;DHT22;9195;53.176;9.486;2022-10-31T17:27:48;14.40;99.90
18139;DHT22;9195;53.176;9.486;2022-10-31T17:30:14;14.30;99.90
18139;DHT22;9195;53.176;9.486;2022-10-31T17:32:41;14.30;99.90
18139;DHT22;9195;53.176;9.486;2022-10-31T17:35:08;14.30;99.90
18139;DHT22;9195;53.176;9.486;2022-10-31T17:37:34;14.30;99.90
18139;DHT22;9195;53.176;9.486;2022-10-31T17:40:00;14.30;99.90
18139;DHT22;9195;53.176;9.486;2022-10-31T17:42:26;14.30;99.90
18139;DHT22;9195;53.176;9.486;2022-10-31T17:44:51;14.20;99.90
18139;DHT22;9195;53.176;9.486;2022-10-31T17:47:17;14.20;99.90
18139;DHT22;9195;53.176;9.486;2022-10-31T17:49:43;14.20;99.90
18139;DHT22;9195;53.176;9.486;2022-10-31T17:52:08;14.20;99.90
18139;DHT22;9195;53.176;9.486;2022-10-31T17:54:34;14.20;99.90
18139;DHT22;9195;53.176;9.486;2022-10-31T17:56:59;14.20;99.90
18139;DHT22;9195;53.176;9.486;2022-10-31T17:59:25;14.10;99.90
18139;DHT22;9195;53.176;9.486;2022-10-31T18:01:56;14.10;99.90
18139;DHT22;9195;53.176;9.486;2022-10-31T18:04:22;14.10;99.90
18139;DHT22;9195;53.176;9.486;2022-10-31T18:06:48;14.10;99.90
18139;DHT22;9195;53.176;9.486;2022-10-31T18:09:15;14.10;99.90
18139;DHT22;9195;53.176;9.486;2022-10-31T18:11:41;14.10;99.90
18139;DHT22;9195;53.176;9.486;2022-10-31T18:14:08;14.00;99.90
18139;DHT22;9195;53.176;9.486;2022-10-31T18:16:34;14.00;99.90
18139;DHT22;9195;53.176;9.486;2022-10-31T18:19:00;14.00;99.90
18139;DHT22;9195;53.176;9.486;2022-10-31T18:21:27;13.90;99.90
18139;DHT22;9195;53.176;9.486;2022-10-31T18:23:57;14.00;99.90
18139;DHT22;9195;53.176;9.486;2022-10-31T18:26:24;13.90;99.90
18139;DHT22;9195;53.176;9.486;2022-10-31T18:28:50;14.00;99.90
18139;DHT22;9195;53.176;9.486;2022-10-31T18:31:16;14.00;99.90
18139;DHT22;9195;53.176;9.486;2022-10-31T18:33:41;14.00;99.90
18139;DHT22;9195;53.176;9.486;2022-10-31T18:36:08;14.00;99.90
18139;DHT22;9195;53.176;9.486;2022-10-31T18:38:39;14.00;99.90
18139;DHT22;9195;53.176;9.486;2022-10-31T18:41:05;14.00;99.90